Terminal Aerodrome Forecast
Issued by NWS Atlanta, GA

Home | Current Version | Previous Version | Text Only | Print | Product List | Glossary On
Versions: 1 2 3 4 5 6 7 8 9 10 11 12 13 14 15 16 17 18 19 20 21 22
000
FTUS42 KFFC 061946 AAA
TAFCSG
TAF AMD
KCSG 061946Z 0620/0718 05005KT P6SM SCT025 BKN040
     FM062100 02004KT P6SM SCT040
     FM070000 35003KT P6SM FEW045
     FM071700 32005KT P6SM SCT150=

USA.gov is the U.S. government's official web portal to all federal, state and local government web resources and services.